createdAt,value
2023-02-04T10:26:30.724Z,5.79
2023-02-04T10:27:31.705Z,5.62
2023-02-04T10:28:31.678Z,5.49
2023-02-04T10:29:31.671Z,5.47
2023-02-04T10:30:32.028Z,5.52
2023-02-04T10:31:31.927Z,5.43
2023-02-04T10:32:31.631Z,5.22
2023-02-04T10:33:31.626Z,5.01
2023-02-04T10:34:31.576Z,5.01
2023-02-04T10:35:31.609Z,5.00
2023-02-04T10:36:31.585Z,5.01
2023-02-04T10:37:31.688Z,5.04
2023-02-04T10:38:31.584Z,5.07
2023-02-04T10:39:31.597Z,5.01
2023-02-04T10:40:31.901Z,4.95
2023-02-04T10:41:31.592Z,4.83
2023-02-04T10:42:31.505Z,4.78
2023-02-04T10:43:31.622Z,4.66
2023-02-04T10:44:31.510Z,4.82
2023-02-04T10:45:31.492Z,5.01
2023-02-04T10:46:31.551Z,5.08
2023-02-04T10:47:31.858Z,5.00
2023-02-04T10:48:31.460Z,4.94
2023-02-04T10:49:31.486Z,5.04
2023-02-04T10:50:31.879Z,5.29
2023-02-04T10:51:31.634Z,5.47
2023-02-04T10:52:31.452Z,5.65
2023-02-04T10:53:31.617Z,5.64
2023-02-04T10:54:31.362Z,5.55
2023-02-04T10:55:31.397Z,5.54
2023-02-04T10:56:31.455Z,5.34
2023-02-04T10:57:31.315Z,5.36
2023-02-04T10:58:31.285Z,5.20
2023-02-04T10:59:31.291Z,5.25
2023-02-04T11:00:31.718Z,5.28
2023-02-04T11:01:31.501Z,5.25
2023-02-04T11:02:31.240Z,5.25
2023-02-04T11:03:31.323Z,5.08
2023-02-04T11:04:31.455Z,5.04
2023-02-04T11:05:31.309Z,5.07
2023-02-04T11:06:31.192Z,5.10
2023-02-04T11:07:31.296Z,5.10
2023-02-04T11:08:31.142Z,5.07
2023-02-04T11:09:31.287Z,4.92
2023-02-04T11:10:31.648Z,4.82
2023-02-04T11:11:31.297Z,4.76
2023-02-04T11:12:31.097Z,4.84
2023-02-04T11:13:31.148Z,4.90
2023-02-04T11:14:31.127Z,4.82
2023-02-04T11:15:31.101Z,4.84
2023-02-04T11:16:31.139Z,4.82
2023-02-04T11:17:31.017Z,4.83
2023-02-04T11:18:31.196Z,4.76
2023-02-04T11:19:31.072Z,4.78
2023-02-04T11:20:31.466Z,4.76
2023-02-04T11:21:30.992Z,4.71
2023-02-04T11:22:30.953Z,4.66
2023-02-04T11:23:30.972Z,4.66
2023-02-04T11:24:31.143Z,4.66
2023-02-04T11:25:31.370Z,4.67
2023-02-04T11:26:30.913Z,4.68
2023-02-04T11:27:30.917Z,4.68
2023-02-04T11:28:30.877Z,4.67
2023-02-04T11:29:30.878Z,4.71
2023-02-04T11:30:30.867Z,4.64
2023-02-04T11:31:31.141Z,4.66
2023-02-04T11:32:30.828Z,4.68
2023-02-04T11:33:30.958Z,4.68
2023-02-04T11:34:30.830Z,4.70
2023-02-04T11:35:31.185Z,4.64
2023-02-04T11:36:30.805Z,4.66
2023-02-04T11:37:31.030Z,4.66
2023-02-04T11:38:30.750Z,4.66
2023-02-04T11:39:30.741Z,4.70
2023-02-04T11:40:30.731Z,4.64
2023-02-04T11:41:30.969Z,4.57
2023-02-04T11:42:30.789Z,4.57
2023-02-04T11:43:30.733Z,4.53
2023-02-04T11:44:30.790Z,4.49
2023-02-04T11:45:31.394Z,4.45
2023-02-04T11:46:30.864Z,4.45
2023-02-04T11:47:30.603Z,4.45
2023-02-04T11:48:30.803Z,4.43
2023-02-04T11:49:30.697Z,4.39
2023-02-04T11:50:30.777Z,4.36
2023-02-04T11:51:30.651Z,4.34
2023-02-04T11:52:30.569Z,4.32
2023-02-04T11:53:30.659Z,4.36
2023-02-04T11:54:30.821Z,4.34
2023-02-04T11:55:31.006Z,4.38
2023-02-04T11:56:30.517Z,4.40
2023-02-04T11:57:30.653Z,4.53
2023-02-04T11:58:30.468Z,4.58
2023-02-04T11:59:30.510Z,4.60
2023-02-04T12:00:30.497Z,4.52
2023-02-04T12:01:30.515Z,4.49
2023-02-04T12:02:30.581Z,4.53
2023-02-04T12:03:30.760Z,4.52
2023-02-04T12:04:30.482Z,4.56
2023-02-04T12:05:30.951Z,4.60
2023-02-04T12:06:30.476Z,4.67
2023-02-04T12:07:30.741Z,4.76
2023-02-04T12:08:30.360Z,4.84
2023-02-04T12:09:30.340Z,4.95
2023-02-04T12:10:30.344Z,4.95
2023-02-04T12:11:30.355Z,4.95
2023-02-04T12:12:30.316Z,4.90
2023-02-04T12:13:30.996Z,4.97
2023-02-04T12:14:30.474Z,5.04
2023-02-04T12:15:30.930Z,5.07
2023-02-04T12:16:30.500Z,5.10
2023-02-04T12:17:30.355Z,5.08
2023-02-04T12:18:30.510Z,5.00
2023-02-04T12:19:30.391Z,5.02
2023-02-04T12:20:30.215Z,5.05
2023-02-04T12:21:30.339Z,5.10
2023-02-04T12:22:30.146Z,5.07
2023-02-04T12:23:30.306Z,5.08
2023-02-04T12:24:30.202Z,5.04
2023-02-04T12:25:30.768Z,4.94
2023-02-04T12:26:30.182Z,4.82
2023-02-04T12:27:30.095Z,4.76
2023-02-04T12:28:30.096Z,4.70
2023-02-04T12:29:30.070Z,4.67
2023-02-04T12:30:30.049Z,4.71
2023-02-04T12:31:30.253Z,4.70
2023-02-04T12:32:30.165Z,4.74
2023-02-04T12:33:30.086Z,4.75
2023-02-04T12:34:30.164Z,4.78
2023-02-04T12:35:30.394Z,4.79
2023-02-04T12:36:29.988Z,4.84
2023-02-04T12:37:30.092Z,4.89
2023-02-04T12:38:29.947Z,4.89
2023-02-04T12:39:30.016Z,4.94
2023-02-04T12:40:29.937Z,4.86
2023-02-04T12:41:30.000Z,4.79
2023-02-04T12:42:29.907Z,4.78
2023-02-04T12:43:30.076Z,4.78
2023-02-04T12:44:29.868Z,4.89
2023-02-04T12:45:30.274Z,4.90
2023-02-04T12:46:29.952Z,4.92
2023-02-04T12:47:29.827Z,4.95
2023-02-04T12:48:29.952Z,4.98
2023-02-04T12:49:30.068Z,4.95
2023-02-04T12:50:29.842Z,4.94
2023-02-04T12:51:29.793Z,4.98
2023-02-04T12:52:29.832Z,5.01
2023-02-04T12:53:29.821Z,5.01
2023-02-04T12:54:29.842Z,5.05
2023-02-04T12:55:30.355Z,5.00
2023-02-04T12:56:29.850Z,4.94
2023-02-04T12:57:29.696Z,4.82
2023-02-04T12:58:29.695Z,4.76
2023-02-04T12:59:29.746Z,4.71
2023-02-04T13:00:29.728Z,4.71
2023-02-04T13:01:29.654Z,4.67
2023-02-04T13:02:29.644Z,4.63
2023-02-04T13:03:29.695Z,4.61
2023-02-04T13:04:29.605Z,4.58
2023-02-04T13:05:29.867Z,4.53
2023-02-04T13:06:29.600Z,4.57
2023-02-04T13:07:29.689Z,4.60
2023-02-04T13:08:29.589Z,4.64
2023-02-04T13:09:29.560Z,4.66
2023-02-04T13:10:29.551Z,4.68
2023-02-04T13:11:29.861Z,4.71
2023-02-04T13:12:29.702Z,4.75
2023-02-04T13:13:29.518Z,4.79
2023-02-04T13:14:29.565Z,4.83
2023-02-04T13:15:29.685Z,4.79
2023-02-04T13:16:29.640Z,4.74
2023-02-04T13:17:29.518Z,4.67
2023-02-04T13:18:29.465Z,4.66
2023-02-04T13:19:29.541Z,4.61
2023-02-04T13:20:29.411Z,4.56
2023-02-04T13:21:29.606Z,4.53
2023-02-04T13:22:29.370Z,4.52
2023-02-04T13:23:29.689Z,4.53
2023-02-04T13:24:29.469Z,4.60
2023-02-04T13:25:29.445Z,4.61
2023-02-04T13:26:29.320Z,4.64
2023-02-04T13:27:29.360Z,4.67
2023-02-04T13:28:29.349Z,4.67
2023-02-04T13:29:29.356Z,4.70
2023-02-04T13:30:29.427Z,4.71
2023-02-04T13:31:29.227Z,4.75
2023-02-04T13:32:29.967Z,4.76
2023-02-04T13:33:29.402Z,4.76
2023-02-04T13:34:29.231Z,4.82
2023-02-04T13:35:29.388Z,4.94
2023-02-04T13:36:29.232Z,4.94
2023-02-04T13:37:29.203Z,4.94
2023-02-04T13:38:29.172Z,4.97
2023-02-04T13:39:29.152Z,4.89
2023-02-04T13:40:29.166Z,4.79
2023-02-04T13:41:29.232Z,4.78
2023-02-04T13:42:29.210Z,4.94
2023-02-04T13:43:29.146Z,5.08
2023-02-04T13:44:29.154Z,5.26
2023-02-04T13:45:29.156Z,5.40
2023-02-04T13:46:29.081Z,5.49
2023-02-04T13:47:29.100Z,5.59
2023-02-04T13:48:29.038Z,5.59
2023-02-04T13:49:29.000Z,5.67
2023-02-04T13:50:29.136Z,5.72
2023-02-04T13:51:29.026Z,5.84
2023-02-04T13:52:29.006Z,5.91
2023-02-04T13:53:29.083Z,5.99
2023-02-04T13:54:28.955Z,6.07
2023-02-04T13:55:29.071Z,5.97
2023-02-04T13:56:28.916Z,5.88
2023-02-04T13:57:28.914Z,5.80
2023-02-04T13:58:28.983Z,5.80
2023-02-04T13:59:29.651Z,5.90
2023-02-04T14:00:28.905Z,5.87
2023-02-04T14:01:28.855Z,5.90
2023-02-04T14:02:28.915Z,5.83
2023-02-04T14:03:28.852Z,5.80
2023-02-04T14:04:28.856Z,5.76
2023-02-04T14:05:29.053Z,5.67
2023-02-04T14:06:28.817Z,5.59
2023-02-04T14:07:28.817Z,5.55
2023-02-04T14:08:28.779Z,5.43
2023-02-04T14:09:28.846Z,5.37
2023-02-04T14:10:28.712Z,5.31
2023-02-04T14:11:28.763Z,5.29
2023-02-04T14:12:28.702Z,5.28
2023-02-04T14:13:28.702Z,5.26
2023-02-04T14:14:28.657Z,5.25
2023-02-04T14:15:28.709Z,5.20
2023-02-04T14:16:28.730Z,5.16
2023-02-04T14:17:28.589Z,5.08
2023-02-04T14:18:28.654Z,5.07
2023-02-04T14:19:28.604Z,5.07
2023-02-04T14:20:28.647Z,5.05
2023-02-04T14:21:28.634Z,5.08
2023-02-04T14:22:28.550Z,5.10
2023-02-04T14:23:28.550Z,5.12
2023-02-04T14:24:28.623Z,5.10
2023-02-04T14:25:28.538Z,5.18
2023-02-04T14:26:28.504Z,5.25
2023-02-04T14:27:28.695Z,5.25
2023-02-04T14:28:28.508Z,5.19
2023-02-04T14:29:28.493Z,5.22
2023-02-04T14:30:28.566Z,5.36
2023-02-04T14:31:28.541Z,5.37
2023-02-04T14:32:28.451Z,5.41
2023-02-04T14:33:28.581Z,5.47
2023-02-04T14:34:28.449Z,5.43
2023-02-04T14:35:28.410Z,5.49
2023-02-04T14:36:28.375Z,5.58
2023-02-04T14:37:28.405Z,5.62
2023-02-04T14:38:28.359Z,5.69
2023-02-04T14:39:28.434Z,5.70
2023-02-04T14:40:28.322Z,5.59
2023-02-04T14:41:28.425Z,5.59
2023-02-04T14:42:28.324Z,5.52
2023-02-04T14:43:28.356Z,5.41
2023-02-04T14:44:28.582Z,5.36
2023-02-04T14:45:28.279Z,5.15
2023-02-04T14:46:28.365Z,5.01
2023-02-04T14:47:28.246Z,4.87
2023-02-04T14:48:28.244Z,4.70
2023-02-04T14:49:28.282Z,4.64
2023-02-04T14:50:28.314Z,4.57
2023-02-04T14:51:28.204Z,4.48
2023-02-04T14:52:28.194Z,4.46
2023-02-04T14:53:28.184Z,4.45
2023-02-04T14:54:28.181Z,4.45
2023-02-04T14:55:28.227Z,4.49
2023-02-04T14:56:28.162Z,4.52
2023-02-04T14:57:28.128Z,4.52
2023-02-04T14:58:28.210Z,4.56
2023-02-04T14:59:28.082Z,4.56
2023-02-04T15:00:28.191Z,4.52
2023-02-04T15:01:28.154Z,4.49
2023-02-04T15:02:28.180Z,4.48
2023-02-04T15:03:28.053Z,4.48
2023-02-04T15:04:28.051Z,4.43
2023-02-04T15:05:28.029Z,4.36
2023-02-04T15:06:28.179Z,4.31
2023-02-04T15:07:27.981Z,4.25
2023-02-04T15:08:27.997Z,4.21
2023-02-04T15:09:27.965Z,4.10
2023-02-04T15:10:27.977Z,4.04
2023-02-04T15:11:27.945Z,4.00
2023-02-04T15:12:27.980Z,3.94
2023-02-04T15:13:27.931Z,3.88
2023-02-04T15:14:27.892Z,3.84
2023-02-04T15:15:27.871Z,3.77
2023-02-04T15:16:27.864Z,3.73
2023-02-04T15:17:27.828Z,3.71
2023-02-04T15:18:27.942Z,3.67
2023-02-04T15:19:27.838Z,3.67
2023-02-04T15:20:27.821Z,3.56
2023-02-04T15:21:27.822Z,3.53
2023-02-04T15:22:27.777Z,3.49
2023-02-04T15:23:27.760Z,3.52
2023-02-04T15:24:27.819Z,3.48
2023-02-04T15:25:27.756Z,3.46
2023-02-04T15:26:27.754Z,3.41
2023-02-04T15:27:27.740Z,3.36
2023-02-04T15:28:27.862Z,3.36
2023-02-04T15:29:27.709Z,3.34
2023-02-04T15:30:27.715Z,3.34
2023-02-04T15:31:27.762Z,3.34
2023-02-04T15:32:27.679Z,3.34
2023-02-04T15:33:27.704Z,3.33
2023-02-04T15:34:27.785Z,3.31
2023-02-04T15:35:27.617Z,3.26
2023-02-04T15:36:27.681Z,3.22
2023-02-04T15:37:27.602Z,3.18
2023-02-04T15:38:27.540Z,3.12
2023-02-04T15:39:27.667Z,3.09
2023-02-04T15:40:27.566Z,3.06
2023-02-04T15:41:27.576Z,3.05
2023-02-04T15:42:27.508Z,3.01
2023-02-04T15:43:27.535Z,2.97
2023-02-04T15:44:27.519Z,2.91
2023-02-04T15:45:27.483Z,2.85
2023-02-04T15:46:27.618Z,2.77
2023-02-04T15:47:27.440Z,2.72
2023-02-04T15:48:27.496Z,2.73
2023-02-04T15:49:27.517Z,2.72
2023-02-04T15:50:27.488Z,2.65
2023-02-04T15:51:27.515Z,2.55
2023-02-04T15:52:29.186Z,2.51
2023-02-04T15:53:27.425Z,2.46
2023-02-04T15:54:27.474Z,2.40
2023-02-04T15:55:27.375Z,2.40
2023-02-04T15:56:27.403Z,2.36
2023-02-04T15:57:27.779Z,2.28
2023-02-04T15:58:27.389Z,2.22
2023-02-04T15:59:27.271Z,2.18
2023-02-04T16:00:27.505Z,2.14
2023-02-04T16:01:27.410Z,2.08
2023-02-04T16:02:27.353Z,2.12
2023-02-04T16:03:27.267Z,2.14
2023-02-04T16:04:27.373Z,2.14
2023-02-04T16:05:27.237Z,2.14
2023-02-04T16:06:27.226Z,2.12
2023-02-04T16:07:27.367Z,2.12
2023-02-04T16:08:27.334Z,2.14
2023-02-04T16:09:27.175Z,2.14
2023-02-04T16:10:27.318Z,2.14
2023-02-04T16:11:27.193Z,2.12
2023-02-04T16:12:27.294Z,2.07
2023-02-04T16:13:27.122Z,2.07
2023-02-04T16:14:27.093Z,2.16
2023-02-04T16:15:27.085Z,2.26
2023-02-04T16:16:27.115Z,2.32
2023-02-04T16:17:27.148Z,2.43
2023-02-04T16:18:27.117Z,2.51
2023-02-04T16:19:27.187Z,2.52
2023-02-04T16:20:27.340Z,2.55
2023-02-04T16:21:27.228Z,2.54
2023-02-04T16:22:28.214Z,2.50
2023-02-04T16:23:26.986Z,2.51
2023-02-04T16:24:27.030Z,2.58
2023-02-04T16:25:27.125Z,2.61
2023-02-04T16:26:26.927Z,2.57
2023-02-04T16:27:27.418Z,2.59
2023-02-04T16:28:26.928Z,2.59
2023-02-04T16:29:27.410Z,2.61
2023-02-04T16:30:27.081Z,2.62
2023-02-04T16:31:27.406Z,2.62
2023-02-04T16:32:26.901Z,2.61
2023-02-04T16:33:27.135Z,2.62
2023-02-04T16:34:26.836Z,2.61
2023-02-04T16:35:26.834Z,2.59
2023-02-04T16:36:26.980Z,2.55
2023-02-04T16:37:26.814Z,2.55
2023-02-04T16:38:26.807Z,2.52
2023-02-04T16:39:26.815Z,2.51
2023-02-04T16:40:26.716Z,2.47
2023-02-04T16:41:26.831Z,2.50
2023-02-04T16:42:26.717Z,2.54
2023-02-04T16:43:26.678Z,2.55
2023-02-04T16:44:26.690Z,2.58
2023-02-04T16:45:26.867Z,2.58
2023-02-04T16:46:26.717Z,2.57
2023-02-04T16:47:26.828Z,2.59
2023-02-04T16:48:26.626Z,2.64
2023-02-04T16:49:26.633Z,2.68
2023-02-04T16:50:26.632Z,2.70
2023-02-04T16:51:26.653Z,2.73
2023-02-04T16:52:26.643Z,2.77
2023-02-04T16:53:26.672Z,2.79
2023-02-04T16:54:26.662Z,2.77
2023-02-04T16:55:26.792Z,2.76
2023-02-04T16:56:26.642Z,2.72
2023-02-04T16:57:26.587Z,2.76
2023-02-04T16:58:26.652Z,2.80
2023-02-04T16:59:26.496Z,2.77
2023-02-04T17:00:26.466Z,2.82
2023-02-04T17:01:26.524Z,2.85
2023-02-04T17:02:26.499Z,2.82
2023-02-04T17:03:26.477Z,2.83
2023-02-04T17:04:26.397Z,2.79
2023-02-04T17:05:26.502Z,2.82
2023-02-04T17:06:26.641Z,2.83
2023-02-04T17:07:26.495Z,2.77
2023-02-04T17:08:26.381Z,2.79
2023-02-04T17:09:26.811Z,2.76
2023-02-04T17:10:26.324Z,2.75
2023-02-04T17:11:26.342Z,2.73
2023-02-04T17:12:26.302Z,2.70
2023-02-04T17:13:26.271Z,2.68
2023-02-04T17:14:26.449Z,2.64
2023-02-04T17:15:26.287Z,2.61
2023-02-04T17:16:26.370Z,2.59
2023-02-04T17:17:26.256Z,2.58
2023-02-04T17:18:26.222Z,2.58
2023-02-04T17:19:26.269Z,2.57
2023-02-04T17:20:26.319Z,2.55
2023-02-04T17:21:26.177Z,2.57
2023-02-04T17:22:26.176Z,2.59
2023-02-04T17:23:26.202Z,2.58
2023-02-04T17:24:26.336Z,2.57
2023-02-04T17:25:26.232Z,2.58
2023-02-04T17:26:26.349Z,2.55
2023-02-04T17:27:26.143Z,2.57
2023-02-04T17:28:26.065Z,2.54
2023-02-04T17:29:26.180Z,2.55
2023-02-04T17:30:26.073Z,2.54
2023-02-04T17:31:26.310Z,2.52
2023-02-04T17:32:26.349Z,2.55
2023-02-04T17:33:26.157Z,2.55
2023-02-04T17:34:26.392Z,2.52
2023-02-04T17:35:26.178Z,2.54
2023-02-04T17:36:26.009Z,2.46
2023-02-04T17:37:26.251Z,2.44
2023-02-04T17:38:27.624Z,2.43
2023-02-04T17:39:26.162Z,2.39
2023-02-04T17:40:27.052Z,2.40
2023-02-04T17:41:26.010Z,2.39
2023-02-04T17:42:26.097Z,2.39
2023-02-04T17:43:26.760Z,2.36
2023-02-04T17:44:27.738Z,2.39
2023-02-04T17:45:25.857Z,2.37
2023-02-04T17:46:25.948Z,2.39
2023-02-04T17:47:25.884Z,2.39
2023-02-04T17:48:25.817Z,2.39
2023-02-04T17:49:25.916Z,2.36
2023-02-04T17:50:26.014Z,2.37
2023-02-04T17:51:25.834Z,2.40
2023-02-04T17:52:25.767Z,2.43
2023-02-04T17:53:25.843Z,2.44
2023-02-04T17:54:25.723Z,2.43
2023-02-04T17:55:26.040Z,2.40
2023-02-04T17:56:25.737Z,2.40
2023-02-04T17:57:25.846Z,2.39
2023-02-04T17:58:25.699Z,2.41
2023-02-04T17:59:25.687Z,2.43
2023-02-04T18:00:25.766Z,2.40
2023-02-04T18:01:25.892Z,2.43
2023-02-04T18:02:25.736Z,2.46
2023-02-04T18:03:25.656Z,2.44
2023-02-04T18:04:25.702Z,2.46
2023-02-04T18:05:25.863Z,2.41
2023-02-04T18:06:25.754Z,2.41
2023-02-04T18:07:25.582Z,2.40
2023-02-04T18:08:25.693Z,2.37
2023-02-04T18:09:25.864Z,2.36
2023-02-04T18:10:25.522Z,2.36
2023-02-04T18:11:27.543Z,2.34
2023-02-04T18:12:25.620Z,2.33
2023-02-04T18:13:25.547Z,2.32
2023-02-04T18:14:25.487Z,2.28
2023-02-04T18:15:25.539Z,2.28
2023-02-04T18:16:25.879Z,2.25
2023-02-04T18:17:25.549Z,2.25
2023-02-04T18:18:25.449Z,2.23
2023-02-04T18:19:25.540Z,2.23
2023-02-04T18:20:25.444Z,2.25
2023-02-04T18:21:25.433Z,2.26
2023-02-04T18:22:25.382Z,2.25
2023-02-04T18:23:25.446Z,2.23
2023-02-04T18:24:25.391Z,2.21
2023-02-04T18:25:25.537Z,2.19
2023-02-04T18:26:25.353Z,2.16
2023-02-04T18:27:25.524Z,2.14
2023-02-04T18:28:25.366Z,2.14
2023-02-04T18:29:25.595Z,2.12
2023-02-04T18:30:25.374Z,2.10
2023-02-04T18:31:25.618Z,2.07
2023-02-04T18:32:25.374Z,2.04
2023-02-04T18:33:25.516Z,2.03
2023-02-04T18:34:25.343Z,2.00
2023-02-04T18:35:25.277Z,1.95
2023-02-04T18:36:25.373Z,1.93
2023-02-04T18:37:25.219Z,1.89
2023-02-04T18:38:25.456Z,1.86
2023-02-04T18:39:25.208Z,1.88
2023-02-04T18:40:25.166Z,1.88
2023-02-04T18:41:25.146Z,1.92
2023-02-04T18:42:25.127Z,1.88
2023-02-04T18:43:25.095Z,1.89
2023-02-04T18:44:25.436Z,1.86
2023-02-04T18:45:25.251Z,1.85
2023-02-04T18:46:25.089Z,1.84
2023-02-04T18:47:25.200Z,1.82
2023-02-04T18:48:25.071Z,1.81
2023-02-04T18:49:25.209Z,1.79
2023-02-04T18:50:25.104Z,1.78
2023-02-04T18:51:25.029Z,1.76
2023-02-04T18:52:25.049Z,1.76
2023-02-04T18:53:24.981Z,1.78
2023-02-04T18:54:25.070Z,1.75
2023-02-04T18:55:25.200Z,1.71
2023-02-04T18:56:25.094Z,1.70
2023-02-04T18:57:25.023Z,1.66
2023-02-04T18:58:25.071Z,1.66
2023-02-04T18:59:24.926Z,1.63
2023-02-04T19:00:25.042Z,1.58
2023-02-04T19:01:24.920Z,1.57
2023-02-04T19:02:24.976Z,1.52
2023-02-04T19:03:24.949Z,1.49
2023-02-04T19:04:24.857Z,1.45
2023-02-04T19:05:24.900Z,1.43
2023-02-04T19:06:25.021Z,1.42
2023-02-04T19:07:24.890Z,1.39
2023-02-04T19:08:25.051Z,1.36
2023-02-04T19:09:24.973Z,1.34
2023-02-04T19:10:25.051Z,1.34
2023-02-04T19:11:24.751Z,1.32
2023-02-04T19:12:24.767Z,1.31
2023-02-04T19:13:24.731Z,1.30
2023-02-04T19:14:24.723Z,1.30
2023-02-04T19:15:24.790Z,1.27
2023-02-04T19:16:24.746Z,1.28
2023-02-04T19:17:24.684Z,1.25
2023-02-04T19:18:24.662Z,1.25
2023-02-04T19:19:24.645Z,1.25
2023-02-04T19:20:24.636Z,1.22
2023-02-04T19:21:24.724Z,1.22
2023-02-04T19:22:24.616Z,1.21
2023-02-04T19:23:24.597Z,1.21
2023-02-04T19:24:24.728Z,1.21
2023-02-04T19:25:24.585Z,1.21
2023-02-04T19:26:24.545Z,1.21
2023-02-04T19:27:24.630Z,1.20
2023-02-04T19:28:24.731Z,1.20
2023-02-04T19:29:24.560Z,1.20
2023-02-04T19:30:24.553Z,1.18
2023-02-04T19:31:24.579Z,1.18
2023-02-04T19:32:24.495Z,1.20
2023-02-04T19:33:24.574Z,1.18
2023-02-04T19:34:24.444Z,1.18
2023-02-04T19:35:24.456Z,1.18
2023-02-04T19:36:24.467Z,1.18
2023-02-04T19:37:24.579Z,1.20
2023-02-04T19:38:24.396Z,1.18
2023-02-04T19:39:24.649Z,1.21
2023-02-04T19:40:24.408Z,1.20
2023-02-04T19:41:24.572Z,1.18
2023-02-04T19:42:24.362Z,1.21
2023-02-04T19:43:24.350Z,1.18
2023-02-04T19:44:24.337Z,1.18
2023-02-04T19:45:24.415Z,1.14
2023-02-04T19:46:24.450Z,1.14
2023-02-04T19:47:24.316Z,1.14
2023-02-04T19:48:24.301Z,1.14
2023-02-04T19:49:24.305Z,1.12
2023-02-04T19:50:24.262Z,1.13
2023-02-04T19:51:24.327Z,1.12
2023-02-04T19:52:24.252Z,1.12
2023-02-04T19:53:24.276Z,1.10
2023-02-04T19:54:24.256Z,1.07
2023-02-04T19:55:24.263Z,1.09
2023-02-04T19:56:24.174Z,1.07
2023-02-04T19:57:24.223Z,1.06
2023-02-04T19:58:24.175Z,1.06
2023-02-04T19:59:24.238Z,1.07
2023-02-04T20:00:24.383Z,1.04
2023-02-04T20:01:24.307Z,1.06
2023-02-04T20:02:24.286Z,1.06
2023-02-04T20:03:24.239Z,1.07
2023-02-04T20:04:24.129Z,1.09
2023-02-04T20:05:24.068Z,1.09
2023-02-04T20:06:24.074Z,1.09
2023-02-04T20:07:24.058Z,1.06
2023-02-04T20:08:24.180Z,1.10
2023-02-04T20:09:24.031Z,1.12
2023-02-04T20:10:24.113Z,1.12
2023-02-04T20:11:23.997Z,1.10
2023-02-04T20:12:24.104Z,1.13
2023-02-04T20:13:24.255Z,1.13
2023-02-04T20:14:24.095Z,1.14
2023-02-04T20:15:23.950Z,1.14
2023-02-04T20:16:23.943Z,1.14
2023-02-04T20:17:23.912Z,1.14
2023-02-04T20:18:24.089Z,1.16
2023-02-04T20:19:23.947Z,1.16
2023-02-04T20:20:24.181Z,1.16
2023-02-04T20:21:23.940Z,1.14
2023-02-04T20:22:23.878Z,1.16
2023-02-04T20:23:23.917Z,1.16
2023-02-04T20:24:24.087Z,1.16
2023-02-04T20:25:23.930Z,1.14
2023-02-04T20:26:24.182Z,1.13
2023-02-04T20:27:23.925Z,1.12
2023-02-04T20:28:23.774Z,1.13
2023-02-04T20:29:23.923Z,1.12
2023-02-04T20:30:23.772Z,1.10
2023-02-04T20:31:24.040Z,1.09
2023-02-04T20:32:23.843Z,1.09
2023-02-04T20:33:23.922Z,1.09
2023-02-04T20:34:23.765Z,1.07
2023-02-04T20:35:23.937Z,1.06
2023-02-04T20:36:23.747Z,1.04
2023-02-04T20:37:23.647Z,1.04
2023-02-04T20:38:24.106Z,1.02
2023-02-04T20:39:23.640Z,1.02
2023-02-04T20:40:23.599Z,1.04
2023-02-04T20:41:23.561Z,1.02
2023-02-04T20:42:23.578Z,1.03
2023-02-04T20:43:23.716Z,1.03
2023-02-04T20:44:23.568Z,1.02
2023-02-04T20:45:23.563Z,1.02
2023-02-04T20:46:23.568Z,0.99
2023-02-04T20:47:23.592Z,0.99
2023-02-04T20:48:23.493Z,0.99
2023-02-04T20:49:23.770Z,0.96
2023-02-04T20:50:23.473Z,0.94
2023-02-04T20:51:23.710Z,0.92
2023-02-04T20:52:23.489Z,0.92
2023-02-04T20:53:23.618Z,0.92
2023-02-04T20:54:23.438Z,0.92
2023-02-04T20:55:23.719Z,0.94
2023-02-04T20:56:23.449Z,0.94
2023-02-04T20:57:23.388Z,0.94
2023-02-04T20:58:23.437Z,0.95
2023-02-04T20:59:23.351Z,0.95
2023-02-04T21:00:23.446Z,0.96
2023-02-04T21:01:23.495Z,0.96
2023-02-04T21:02:23.435Z,0.96
2023-02-04T21:03:23.313Z,0.96
2023-02-04T21:04:23.465Z,1.00
2023-02-04T21:05:23.283Z,1.03
2023-02-04T21:06:23.492Z,1.03
2023-02-04T21:07:23.349Z,1.04
2023-02-04T21:08:23.253Z,1.07
2023-02-04T21:09:23.297Z,1.06
2023-02-04T21:10:23.449Z,1.07
2023-02-04T21:11:23.318Z,1.06
2023-02-04T21:12:23.208Z,1.09
2023-02-04T21:13:23.297Z,1.04
2023-02-04T21:14:23.193Z,1.07
2023-02-04T21:15:23.167Z,1.06
2023-02-04T21:16:23.168Z,1.09
2023-02-04T21:17:23.293Z,1.09
2023-02-04T21:18:23.134Z,1.09
2023-02-04T21:19:23.576Z,1.07
2023-02-04T21:20:23.123Z,1.09
2023-02-04T21:21:23.110Z,1.09
2023-02-04T21:22:23.126Z,1.09
2023-02-04T21:23:23.052Z,1.07
2023-02-04T21:24:23.112Z,1.09
2023-02-04T21:25:23.088Z,1.10
2023-02-04T21:26:23.038Z,1.09
2023-02-04T21:27:23.288Z,1.09
2023-02-04T21:28:22.996Z,1.06
2023-02-04T21:29:23.287Z,1.07
2023-02-04T21:30:23.127Z,1.06
2023-02-04T21:31:23.415Z,1.06
2023-02-04T21:32:22.948Z,1.04
2023-02-04T21:33:22.974Z,1.06
2023-02-04T21:34:22.936Z,1.06
2023-02-04T21:35:22.962Z,1.06
2023-02-04T21:36:23.132Z,1.04
2023-02-04T21:37:23.291Z,1.06
2023-02-04T21:38:22.889Z,1.04
2023-02-04T21:39:22.972Z,1.06
2023-02-04T21:40:22.848Z,1.07
2023-02-04T21:41:22.842Z,1.09
2023-02-04T21:42:23.142Z,1.07
2023-02-04T21:43:22.987Z,1.07
2023-02-04T21:44:22.787Z,1.06
2023-02-04T21:45:22.772Z,1.06
2023-02-04T21:46:22.780Z,1.06
2023-02-04T21:47:23.038Z,1.02
2023-02-04T21:48:22.765Z,1.00
2023-02-04T21:49:22.968Z,0.99
2023-02-04T21:50:22.792Z,0.95
2023-02-04T21:51:22.982Z,0.92
2023-02-04T21:52:22.812Z,0.88
2023-02-04T21:53:22.733Z,0.88
2023-02-04T21:54:22.813Z,0.82
2023-02-04T21:55:22.654Z,0.82
2023-02-04T21:56:22.794Z,0.74
2023-02-04T21:57:22.648Z,0.71
2023-02-04T21:58:22.804Z,0.70
2023-02-04T21:59:22.706Z,0.68
2023-02-04T22:00:22.580Z,0.68
2023-02-04T22:01:22.709Z,0.67
2023-02-04T22:02:22.799Z,0.64
2023-02-04T22:03:22.663Z,0.58
2023-02-04T22:04:22.614Z,0.55
2023-02-04T22:05:22.648Z,0.52
2023-02-04T22:06:22.822Z,0.49
2023-02-04T22:07:22.481Z,0.48
2023-02-04T22:08:22.480Z,0.45
2023-02-04T22:09:22.456Z,0.39
2023-02-04T22:10:22.556Z,0.36
2023-02-04T22:11:22.444Z,0.29
2023-02-04T22:12:22.497Z,0.24
2023-02-04T22:13:22.678Z,0.19
2023-02-04T22:14:22.499Z,0.13
2023-02-04T22:15:22.676Z,0.11
2023-02-04T22:16:22.421Z,0.08
2023-02-04T22:17:22.355Z,0.05
2023-02-04T22:18:22.342Z,0.01
2023-02-04T22:19:22.339Z,0.01
2023-02-04T22:20:22.308Z,0.01
2023-02-04T22:21:22.368Z,0.02
2023-02-04T22:22:22.489Z,0.02
2023-02-04T22:23:22.320Z,0.06
2023-02-04T22:24:22.249Z,0.06
2023-02-04T22:25:22.359Z,0.06
2023-02-04T22:26:22.241Z,0.08
2023-02-04T22:27:22.398Z,0.06
2023-02-04T22:28:22.204Z,0.08
2023-02-04T22:29:22.186Z,0.09
2023-02-04T22:30:22.233Z,0.09
2023-02-04T22:31:22.398Z,0.11
2023-02-04T22:32:22.178Z,0.11
2023-02-04T22:33:22.200Z,0.11
2023-02-04T22:34:22.147Z,0.12
2023-02-04T22:35:22.345Z,0.12
2023-02-04T22:36:22.162Z,0.12
2023-02-04T22:37:22.093Z,0.12
2023-02-04T22:38:22.254Z,0.08
2023-02-04T22:39:22.334Z,0.06
2023-02-04T22:40:22.173Z,0.02
2023-02-04T22:41:22.064Z,0.01
2023-02-04T22:42:22.172Z,0.00
2023-02-04T22:43:22.083Z,-0.02
2023-02-04T22:44:22.181Z,-0.05
2023-02-04T22:45:22.022Z,-0.06
2023-02-04T22:46:22.034Z,-0.07
2023-02-04T22:47:22.019Z,-0.12
2023-02-04T22:48:22.026Z,-0.13
2023-02-04T22:49:22.002Z,-0.17
2023-02-04T22:50:22.189Z,-0.18
2023-02-04T22:51:21.892Z,-0.18
2023-02-04T22:52:21.869Z,-0.20
2023-02-04T22:53:22.074Z,-0.20
2023-02-04T22:54:22.165Z,-0.23
2023-02-04T22:55:21.864Z,-0.24
2023-02-04T22:56:21.867Z,-0.26
2023-02-04T22:57:21.825Z,-0.27
2023-02-04T22:58:21.858Z,-0.27
2023-02-04T22:59:22.099Z,-0.27
2023-02-04T23:00:21.876Z,-0.27
2023-02-04T23:01:21.769Z,-0.28
2023-02-04T23:02:21.788Z,-0.24
2023-02-04T23:03:21.757Z,-0.24
2023-02-04T23:04:21.917Z,-0.26
2023-02-04T23:05:21.735Z,-0.24
2023-02-04T23:06:21.846Z,-0.24
2023-02-04T23:07:21.695Z,-0.26
2023-02-04T23:08:21.694Z,-0.23
2023-02-04T23:09:21.663Z,-0.21
2023-02-04T23:10:21.684Z,-0.23
2023-02-04T23:11:21.729Z,-0.20
2023-02-04T23:12:21.869Z,-0.20
2023-02-04T23:13:21.724Z,-0.18
2023-02-04T23:14:21.848Z,-0.17
2023-02-04T23:15:21.699Z,-0.15
2023-02-04T23:16:22.073Z,-0.13
2023-02-04T23:17:21.640Z,-0.09
2023-02-04T23:18:21.529Z,-0.09
2023-02-04T23:19:21.514Z,-0.07
2023-02-04T23:20:21.609Z,-0.06
2023-02-04T23:21:21.511Z,-0.06
2023-02-04T23:22:21.469Z,-0.06
2023-02-04T23:23:21.698Z,-0.06
2023-02-04T23:24:21.499Z,-0.05
2023-02-04T23:25:21.445Z,-0.03
2023-02-04T23:26:22.238Z,-0.03
2023-02-04T23:27:21.694Z,-0.03
2023-02-04T23:28:21.452Z,-0.03
2023-02-04T23:29:21.454Z,-0.03
2023-02-04T23:30:24.128Z,-0.02
2023-02-04T23:31:21.376Z,0.00
2023-02-04T23:32:21.366Z,0.01
2023-02-04T23:33:21.352Z,0.00
2023-02-04T23:34:21.402Z,0.01
2023-02-04T23:35:21.358Z,0.05
2023-02-04T23:36:21.277Z,0.06
2023-02-04T23:37:21.349Z,0.05
2023-02-04T23:38:21.467Z,0.05
2023-02-04T23:39:21.443Z,0.09
2023-02-04T23:40:21.332Z,0.09
2023-02-04T23:41:21.248Z,0.13
2023-02-04T23:42:21.234Z,0.15